NCAR-RAP Real-Time Weather Data

Output produced by METARs form (25 February 2018  14:00 UTC)
found at http://weather.rap.ucar.edu/surface/
 
KDCA 251354Z COR 03004KT 3SM R01/6000FT RA BR BKN006 BKN032 OVC075 09/09 A3001 RMK AO2 PRESFR P0000 T00940089
KDCA 251352Z 02004KT 2 1/2SM R01/5000VP6000FT RA BR BKN006 OVC032 09/09 A3002 RMK AO2 SLP165 P0011 T00940089
KDCA 251345Z VRB03KT 2 1/2SM R01/3500VP6000FT +RA BR BKN006 OVC029 09/09 A3002 RMK AO2 P0007 T00940089
KDCA 251338Z 32006KT 4SM RA BR OVC006 09/09 A3003 RMK AO2 P0004 T00940089
KDCA 251332Z 31008KT 3SM -RA BR OVC004 09/09 A3005 RMK AO2 P0004 T00890089
KDCA 251327Z 31011G16KT 2SM R01/6000FT RA BR OVC003 09/08 A3005 RMK AO2 PRESRR P0003 T00890083
KDCA 251252Z 11003KT 1 1/2SM R01/6000FT -RA BR OVC003 09/09 A2998 RMK AO2 RAE24B43 SLP153 P0000 T00890089
KDCA 251218Z 10004KT 1 3/4SM -RA BR OVC003 09/09 A2998 RMK AO2 P0000 T00890089
KDCA 251208Z 09004KT 2 1/2SM -RA BR OVC003 09/09 A2998 RMK AO2 P0000 T00890089
KDCA 251152Z 11004KT 1 1/4SM -RA BR OVC003 09/08 A2998 RMK AO2 RAB47 SLP150 P0000 60000 70017 T00890083 10094 20089 56021
KDCA 251130Z 11006KT 1 1/2SM BR OVC003 09/08 A2998 RMK AO2 T00890083
KDCA 251052Z 09004KT 2 1/2SM BR OVC004 09/08 A3000 RMK AO2 SLP157 T00890083
KDCA 251044Z 11003KT 2 1/2SM BR OVC004 09/08 A3001 RMK AO2 T00890083
KDCA 251015Z 10007KT 4SM BR OVC004 09/08 A3000 RMK AO2 T00890083
KDCA 250952Z 08006KT 4SM BR OVC005 09/08 A3001 RMK AO2 SLP162 T00890083
KDCA 250852Z 11004KT 6SM BR OVC007 09/08 A3004 RMK AO2 SLP171 60000 T00890083 56023
KDCA 250817Z 10003KT 7SM OVC007 09/08 A3005 RMK AO2 T00940083
KDCA 250752Z 12005KT 8SM OVC008 09/08 A3005 RMK AO2 RAE03 SLP176 P0000 T00940083
KDCA 250735Z 11005KT 9SM OVC009 09/08 A3005 RMK AO2 RAE03 P0000 T00940083
KDCA 250652Z 09005KT 10SM -RA OVC010 09/08 A3007 RMK AO2 PRESFR SLP182 P0000 T00940083
KDCA 250638Z 09004KT 10SM -RA OVC010 09/08 A3009 RMK AO2 P0000 T00940083
KDCA 250552Z 09006KT 8SM -RA OVC009 09/09 A3010 RMK AO2 SLP194 P0001 60014 T00940089 10106 20094 56014
KDCA 250452Z 05005KT 7SM -RA BKN011 OVC018 09/09 A3012 RMK AO2 SLP200 P0008 T00940089 401170089
KDCA 250352Z 04008KT 4SM RA BR OVC012 10/08 A3013 RMK AO2 SLP201 P0005 T01000083
KDCA 250306Z 02005KT 5SM -RA BR OVC014 10/08 A3015 RMK AO2 P0003 T01000083
KDCA 250258Z 04007KT 3SM +RA BR OVC015 10/08 A3015 RMK AO2 P0001 T01000083
KDCA 250252Z 05006KT 10SM -RA OVC015 10/08 A3015 RMK AO2 RAB22 SLP208 P0000 60000 T01000083 56004
KDCA 250152Z 05005KT 10SM OVC017 10/09 A3015 RMK AO2 RAB37E48 SLP211 P0000 T01000089
KDCA 250059Z 04007KT 10SM OVC015 10/09 A3015 RMK AO2 T01000089
KDCA 250052Z 05008KT 10SM BKN013 OVC018 11/09 A3015 RMK AO2 SLP208 T01060089
KDCA 242352Z 05010KT 10SM OVC013 11/09 A3016 RMK AO2 RAE15 SLP212 P0000 60003 T01060089 10117 20106 53010
KDCA 242338Z 05008KT 10SM BKN014 OVC020 11/09 A3015 RMK AO2 RAE15 P0000 T01060089
KDCA 242312Z 05009KT 10SM -RA SCT012 OVC020 11/09 A3014 RMK AO2 P0000 T01060089
KDCA 242252Z 05009KT 8SM -RA BKN011 OVC020 11/09 A3012 RMK AO2 SLP200 P0000 T01060094
KDCA 242152Z 06012KT 7SM -RA OVC011 11/09 A3012 RMK AO2 SLP198 P0002 T01060094
KDCA 242134Z 06011KT 4SM -RA BR OVC012 11/09 A3011 RMK AO2 P0001 T01060094
KDCA 242101Z 05009KT 7SM -RA OVC011 11/09 A3013 RMK AO2 P0000 T01110094
KDCA 242052Z 05009KT 6SM -RA BR BKN009 OVC016 11/09 A3013 RMK AO2 RAE22B44 SLP202 P0000 60001 T01110094 55008
KDCA 241952Z 05007KT 7SM -RA OVC008 11/10 A3012 RMK AO2 SLP200 P0001 T01110100
KDCA 241940Z 05009KT 7SM -RA OVC008 11/10 A3012 RMK AO2 P0000 T01110100
KDCA 241852Z 01007KT 10SM -RA OVC007 12/11 A3013 RMK AO2 RAB10 SLP204 P0000 T01170106
KDCA 241752Z 36004KT 10SM OVC006 12/11 A3015 RMK AO2 SLP210 T01170106 10117 20100 56008
KDCA 241721Z 06007KT 9SM OVC005 11/11 A3013 RMK AO2 T01110106
KDCA 241652Z 03006KT 7SM OVC004 11/11 A3016 RMK AO2 SLP211 T01110106
KDCA 241629Z 02007KT 3SM BR OVC003 11/11 A3017 RMK AO2 T01060106
KDCA 241552Z 05008KT 1SM R01/P6000FT BR OVC003 11/11 A3016 RMK AO2 SLP212 VIS 3/4V11/4 T01060106
KDCA 241508Z 04005KT 1SM R01/2800V4500FT BR OVC002 11/11 A3017 RMK AO2 VIS 1/2V1 T01060106
KDCA 241503Z 04005KT 1/2SM R01/2200V3500FT FG VV003 11/11 A3018 RMK AO2 T01060106
KDCA 241452Z 03006KT 1/4SM R01/1800V2000FT FG VV003 11/11 A3018 RMK AO2 SLP218 VIS 1/8V1/4 T01060106 51007
KDCA 241414Z 04006KT 1/4SM R01/1800V2000FT FG VV003 11/11 A3018 RMK AO2 VIS 1/8V1/4 T01060106
KDCA 241352Z 04005KT 1/8SM R01/1600V1800FT FG VV003 11/11 A3018 RMK AO2 SLP218 VIS 1/16V1/4 T01060106
KDCA 241252Z 04003KT 1/8SM R01/1200V1400FT FG VV002 10/10 A3017 RMK AO2 SLP218 VIS 1/16V1/4 T01000100
KDCA 241152Z 07004KT 1/8SM R01/1200FT FG VV002 10/10 A3015 RMK AO2 SLP211 T01000100 10100 20089 58008
KDCA 241147Z 07003KT 1/8SM R01/1200V1400FT FG VV002 10/10 A3016 RMK AO2
KDCA 241107Z 07004KT 1/4SM R01/1200V1400FT FG VV002 10/10 A3015 RMK AO2 PRESFR T01000100
KDCA 241052Z 36005KT 1/4SM R01/1200V1400FT FG VV002 09/09 A3018 RMK AO2 SLP219 T00940094
KDCA 240952Z 00000KT 1/4SM R01/1400FT FG VV002 09/09 A3016 RMK AO2 SLP214 T00940094
KDCA 240852Z 00000KT 1/8SM R01/1600V1800FT FG VV002 09/09 A3018 RMK AO2 SLP219 T00940094 58020
KDCA 240820Z 00000KT 1/8SM R01/2000V2200FT FG VV003 09/09 A3019 RMK AO2 T00940094
KDCA 240808Z 00000KT 1/8SM R01/1800V2400FT FG VV003 09/09 A3019 RMK AO2 T00940094
KDCA 240752Z 00000KT 1/16SM R01/1800V2000FT FG VV002 09/09 A3019 RMK AO2 SLP224 T00940094
KDCA 240744Z 00000KT 1/16SM R01/1800V2000FT FG VV002 09/09 A3020 RMK AO2 T00940094
KDCA 240729Z 00000KT 1/8SM R01/2200V2600FT FG VV002 09/09 A3022 RMK AO2 T00940094
KDCA 240652Z 00000KT 1/4SM R01/4000V5500FT FG OVC003 09/09 A3023 RMK AO2 SLP236 T00940089
KDCA 240552Z 18005KT 1/4SM R01/5500VP6000FT FG OVC002 09/09 A3024 RMK AO2 SLP239 60000 T00890089 10089 20078 56018
KDCA 240541Z 18004KT 1/2SM R01/P6000FT FG OVC003 09/09 A3024 RMK AO2 T00890089
KDCA 240452Z 18004KT 1 1/2SM BR OVC003 09/09 A3025 RMK AO2 SLP242 T00890089 400890050
KDCA 240416Z 19005KT 2SM BR OVC003 09/08 A3026 RMK AO2 T00890083
KDCA 240352Z 19003KT 3SM BR OVC004 08/08 A3028 RMK AO2 DZE48 SLP252 VIS SW 2 1/2 P0000 T00830083
KDCA 240314Z 20005KT 2 1/2SM -DZ BR OVC003 08/08 A3029 RMK AO2 P0000 T00830083
KDCA 240252Z 19006KT 2 1/2SM -DZ BR SCT002 OVC004 08/08 A3029 RMK AO2 SLP258 P0000 60000 T00830078 58011
KDCA 240240Z 20005KT 2 1/2SM -DZ BR SCT002 OVC004 08/08 A3029 RMK AO2 P0000 T00830078
KDCA 240208Z 20005KT 3SM -DZ BR SCT002 OVC004 08/08 A3031 RMK AO2 P0000 T00830078
KDCA 240152Z 18005KT 4SM -DZ BR SCT002 OVC005 08/08 A3030 RMK AO2 SLP261 P0000 T00830078
KDCA 240109Z 18006KT 4SM -DZ BR SCT002 OVC005 08/08 A3032 RMK AO2 VIS S-SW 2 1/2 P0000 T00780078
KDCA 240052Z 18005KT 6SM -DZ BR SCT004 OVC006 08/07 A3032 RMK AO2 DZB37 SLP268 VIS S-SW 2 1/2 P0000 T00830072
KDCA 240047Z 18005KT 6SM -DZ BR SCT004 OVC006 08/07 A3033 RMK AO2 DZB37 VIS S-SW 3 P0000
KDCA 240038Z 18005KT 9SM -DZ SCT005 OVC008 08/07 A3033 RMK AO2 DZB37 VIS S-SW 3 P0000 T00830072
KDCA 240016Z 18007KT 10SM OVC009 08/07 A3033 RMK AO2 T00830072
KDCA 232352Z 17006KT 10SM OVC010 08/07 A3033 RMK AO2 SLP271 60000 T00830067 10089 20067 58017
KDCA 232252Z 18006KT 10SM OVC011 08/07 A3035 RMK AO2 SLP277 T00830067
KDCA 232152Z 18005KT 10SM OVC011 08/07 A3036 RMK AO2 SLP282 T00830067
KDCA 232052Z 20005KT 10SM OVC011 08/07 A3038 RMK AO2 SLP287 60000 T00830067 56037
KDCA 231952Z 20006KT 10SM OVC012 08/06 A3041 RMK AO2 SLP298 T00780061
KDCA 231921Z 20005KT 10SM OVC010 08/06 A3042 RMK AO2 T00780061
KDCA 231852Z 19006KT 10SM OVC008 08/06 A3043 RMK AO2 DZE46 SLP302 P0000 T00780061
KDCA 231840Z COR 18005KT 7SM -DZ OVC008 07/06 A3044 RMK AO2 P0000 T00720061
KDCA 231752Z 00000KT 3SM -DZ BR OVC010 07/06 A3049 RMK AO2 SLP324 P0000 60000 T00670056 10067 20050 58030 $
KDCA 231652Z 00000KT 3SM -DZ BR OVC010 06/06 A3053 RMK AO2 DZB26 SLP337 P0000 T00610056
KDCA 231626Z 11005KT 3SM -DZ BR OVC011 06/05 A3054 RMK AO2 DZB26 P0000 T00610050
KDCA 231609Z 12005KT 10SM OVC011 07/04 A3055 RMK AO2 T00670044
KDCA 231552Z 11006KT 10SM OVC009 06/04 A3056 RMK AO2 SLP346 T00610044
KDCA 231452Z 11005KT 10SM OVC009 06/04 A3058 RMK AO2 SLP354 60000 T00560044 58006
KDCA 231352Z 09004KT 10SM OVC009 06/04 A3059 RMK AO2 RAE15 SLP357 P0000 T00560044
KDCA 231338Z 07006KT 10SM BKN009 OVC015 06/04 A3059 RMK AO2 RAE15 P0000 T00560044
KDCA 231252Z 07006KT 4SM -RA BR BKN007 OVC012 06/04 A3060 RMK AO2 DZE38RAB38 SLP360 P0000 T00560044
KDCA 231238Z 06006KT 4SM -RA BR SCT007 BKN012 OVC017 06/04 A3060 RMK AO2 DZE38RAB38 P0000 T00560044
KDCA 231207Z 07007KT 5SM -DZ BR OVC012 06/04 A3059 RMK AO2 P0000 T00560044
KDCA 231152Z 07005KT 3SM -DZ BR OVC010 05/04 A3058 RMK AO2 SLP355 P0000 60000 70006 T00500044 10061 20050 56004
KDCA 231137Z 07006KT 3SM -DZ BR OVC012 05/04 A3058 RMK AO2 P0000 T00500044
KDCA 231130Z 07005KT 3SM -DZ BR BKN008 OVC016 05/04 A3058 RMK AO2 P0000 T00500044
KDCA 231107Z 07008KT 2 1/2SM -DZ BR FEW008 OVC012 05/04 A3058 RMK AO2 P0000 T00500044
KDCA 231052Z 06007KT 3SM -DZ BR OVC012 05/04 A3059 RMK AO2 SLP358 P0000 T00500044
KDCA 231021Z 06008KT 3SM -DZ BR BKN008 OVC013 06/04 A3059 RMK AO2 P0000 T00560044
KDCA 231017Z 05005KT 3SM -DZ BR SCT006 OVC011 06/04 A3059 RMK AO2 P0000 T00560044
KDCA 231003Z 07005KT 4SM -DZ BR BKN009 OVC013 06/04 A3058 RMK AO2 P0000 T00560044
KDCA 230952Z 07004KT 4SM -DZ BR SCT007 OVC013 06/04 A3058 RMK AO2 DZB40 SLP356 P0000 T00560044
KDCA 230939Z 08006KT 7SM FEW007 OVC013 05/04 A3059 RMK AO2 T00500044
KDCA 230852Z 06008KT 8SM OVC012 06/04 A3059 RMK AO2 RAB09E25 SLP359 P0000 60000 T00560039 56004
KDCA 230836Z 06007KT 8SM OVC013 06/04 A3059 RMK AO2 RAB09E25 P0000 T00560039
KDCA 230803Z 08007KT 9SM OVC015 06/03 A3059 RMK AO2 T00560033
KDCA 230752Z 07006KT 7SM BKN013 OVC019 06/04 A3060 RMK AO2 SLP362 T00560039
KDCA 230742Z 05007KT 7SM OVC013 06/04 A3060 RMK AO2 T00560039
KDCA 230711Z 06010KT 5SM BR BKN010 OVC015 06/04 A3059 RMK AO2 T00560044
KDCA 230702Z 07007KT 5SM BR BKN012 OVC018 06/04 A3060 RMK AO2 T00560044
KDCA 230652Z 05009KT 6SM BR OVC015 06/04 A3059 RMK AO2 SLP359 DZB10E35 P0000 T00610044
KDCA 230639Z 05008KT 6SM BR BKN016 OVC020 06/04 A3061 RMK AO2 DZB10E35 P0000 T00610044
KDCA 230623Z 05008KT 5SM -DZ BR BKN014 OVC019 06/04 A3060 RMK AO2 DZB23 P0000 T00560044
KDCA 230600Z 06008KT 4SM BR OVC012 06/04 A3060 RMK AO2 T00560044
KDCA 230552Z 07007KT 6SM BR OVC012 06/04 A3061 RMK AO2 SLP363 T00610039 10089 20061 51004
KDCA 230452Z 07011KT 10SM OVC013 06/04 A3060 RMK AO2 SLP363 T00610039 401940061
KDCA 230352Z 06010KT 10SM OVC014 07/04 A3061 RMK AO2 SLP365 T00670039
KDCA 230252Z 06012KT 10SM OVC014 07/04 A3059 RMK AO2 SLP360 T00670044 51021
KDCA 230204Z 07009KT 10SM OVC013 07/05 A3058 RMK AO2 T00720050